Terminal Aerodrome Forecast
Issued by NWS Portland, ME

Home | Current Version | Previous Version | Text Only | Print | Product List | Glossary On
Versions: 1 2 3 4 5 6 7 8 9 10 11 12 13 14 15 16 17 18 19
001
FTUS41 KGYX 232055 AAA
TAFPWM
TAF AMD
KPWM 232055Z 2321/2418 16008KT 6SM -PLRA BKN025 OVC035
     FM240000 18007KT 4SM -RASN OVC015
     FM240300 24009KT P6SM OVC007
     FM240900 29008KT P6SM FEW250=

USA.gov is the U.S. government's official web portal to all federal, state and local government web resources and services.